sensor_id;sensor_type;location;lat;lon;timestamp;temperature;humidity
9305;DHT22;4690;52.422;13.486;2023-05-07T00:05:53;9.30;99.90
9305;DHT22;4690;52.422;13.486;2023-05-07T00:08:19;9.30;99.90
9305;DHT22;4690;52.422;13.486;2023-05-07T00:10:46;9.30;99.90
9305;DHT22;4690;52.422;13.486;2023-05-07T00:13:12;9.30;99.90
9305;DHT22;4690;52.422;13.486;2023-05-07T00:15:38;9.30;99.90
9305;DHT22;4690;52.422;13.486;2023-05-07T00:18:04;9.30;99.90
9305;DHT22;4690;52.422;13.486;2023-05-07T00:20:30;9.30;99.90
9305;DHT22;4690;52.422;13.486;2023-05-07T00:22:55;9.30;99.90
9305;DHT22;4690;52.422;13.486;2023-05-07T00:25:21;9.30;99.90
9305;DHT22;4690;52.422;13.486;2023-05-07T00:27:47;9.30;99.90
9305;DHT22;4690;52.422;13.486;2023-05-07T00:30:13;9.30;99.90
9305;DHT22;4690;52.422;13.486;2023-05-07T00:32:39;9.30;99.90
9305;DHT22;4690;52.422;13.486;2023-05-07T00:35:05;9.30;99.90
9305;DHT22;4690;52.422;13.486;2023-05-07T00:37:32;9.30;99.90
9305;DHT22;4690;52.422;13.486;2023-05-07T00:39:59;9.30;99.90
9305;DHT22;4690;52.422;13.486;2023-05-07T00:42:25;9.30;99.90
9305;DHT22;4690;52.422;13.486;2023-05-07T00:44:50;9.30;99.90
9305;DHT22;4690;52.422;13.486;2023-05-07T00:47:17;9.30;99.90
9305;DHT22;4690;52.422;13.486;2023-05-07T00:49:44;9.30;99.90
9305;DHT22;4690;52.422;13.486;2023-05-07T00:52:16;9.30;99.90
9305;DHT22;4690;52.422;13.486;2023-05-07T00:54:44;9.30;99.90
9305;DHT22;4690;52.422;13.486;2023-05-07T00:57:10;9.20;99.90
9305;DHT22;4690;52.422;13.486;2023-05-07T00:59:37;9.30;99.90
9305;DHT22;4690;52.422;13.486;2023-05-07T01:02:03;9.30;99.90
9305;DHT22;4690;52.422;13.486;2023-05-07T01:04:29;9.30;99.90
9305;DHT22;4690;52.422;13.486;2023-05-07T01:06:55;9.30;99.90
9305;DHT22;4690;52.422;13.486;2023-05-07T01:09:24;9.20;99.90
9305;DHT22;4690;52.422;13.486;2023-05-07T01:11:51;9.20;99.90
9305;DHT22;4690;52.422;13.486;2023-05-07T01:14:19;9.20;99.90
9305;DHT22;4690;52.422;13.486;2023-05-07T01:16:49;9.20;99.90
9305;DHT22;4690;52.422;13.486;2023-05-07T01:19:18;9.30;99.90
9305;DHT22;4690;52.422;13.486;2023-05-07T01:21:48;9.20;99.90
9305;DHT22;4690;52.422;13.486;2023-05-07T01:24:16;9.20;99.90
9305;DHT22;4690;52.422;13.486;2023-05-07T01:26:43;9.20;99.90
9305;DHT22;4690;52.422;13.486;2023-05-07T01:29:10;9.30;99.90
9305;DHT22;4690;52.422;13.486;2023-05-07T01:31:37;9.30;99.90
9305;DHT22;4690;52.422;13.486;2023-05-07T01:34:05;9.30;99.90
9305;DHT22;4690;52.422;13.486;2023-05-07T01:36:34;9.20;99.90
9305;DHT22;4690;52.422;13.486;2023-05-07T01:39:05;9.20;99.90
9305;DHT22;4690;52.422;13.486;2023-05-07T01:41:34;9.30;99.90
9305;DHT22;4690;52.422;13.486;2023-05-07T01:44:00;9.20;99.90
9305;DHT22;4690;52.422;13.486;2023-05-07T01:46:28;9.20;99.90
9305;DHT22;4690;52.422;13.486;2023-05-07T01:48:55;9.20;99.90
9305;DHT22;4690;52.422;13.486;2023-05-07T01:51:21;9.20;99.90
9305;DHT22;4690;52.422;13.486;2023-05-07T01:53:47;9.20;99.90
9305;DHT22;4690;52.422;13.486;2023-05-07T01:56:17;9.20;99.90
9305;DHT22;4690;52.422;13.486;2023-05-07T01:58:44;9.20;99.90
9305;DHT22;4690;52.422;13.486;2023-05-07T02:01:13;9.20;99.90
9305;DHT22;4690;52.422;13.486;2023-05-07T02:03:39;9.20;99.90
9305;DHT22;4690;52.422;13.486;2023-05-07T02:06:05;9.20;99.90
9305;DHT22;4690;52.422;13.486;2023-05-07T02:08:31;9.20;99.90
9305;DHT22;4690;52.422;13.486;2023-05-07T02:10:56;9.20;99.90
9305;DHT22;4690;52.422;13.486;2023-05-07T02:13:22;9.20;99.90
9305;DHT22;4690;52.422;13.486;2023-05-07T02:15:49;9.20;99.90
9305;DHT22;4690;52.422;13.486;2023-05-07T02:18:16;9.20;99.90
9305;DHT22;4690;52.422;13.486;2023-05-07T02:20:42;9.20;99.90
9305;DHT22;4690;52.422;13.486;2023-05-07T02:23:08;9.20;99.90
9305;DHT22;4690;52.422;13.486;2023-05-07T02:25:34;9.10;99.90
9305;DHT22;4690;52.422;13.486;2023-05-07T02:27:59;9.10;99.90
9305;DHT22;4690;52.422;13.486;2023-05-07T02:30:25;9.20;99.90
9305;DHT22;4690;52.422;13.486;2023-05-07T02:32:51;9.20;99.90
9305;DHT22;4690;52.422;13.486;2023-05-07T02:35:17;9.20;99.90
9305;DHT22;4690;52.422;13.486;2023-05-07T02:37:43;9.20;99.90
9305;DHT22;4690;52.422;13.486;2023-05-07T02:40:09;9.10;99.90
9305;DHT22;4690;52.422;13.486;2023-05-07T02:42:36;9.20;99.90
9305;DHT22;4690;52.422;13.486;2023-05-07T02:45:02;9.20;99.90
9305;DHT22;4690;52.422;13.486;2023-05-07T02:47:28;9.20;99.90
9305;DHT22;4690;52.422;13.486;2023-05-07T02:49:54;9.20;99.90
9305;DHT22;4690;52.422;13.486;2023-05-07T02:52:21;9.20;99.90
9305;DHT22;4690;52.422;13.486;2023-05-07T02:54:47;9.20;99.90
9305;DHT22;4690;52.422;13.486;2023-05-07T02:57:13;9.20;99.90
9305;DHT22;4690;52.422;13.486;2023-05-07T02:59:38;9.20;99.90
9305;DHT22;4690;52.422;13.486;2023-05-07T03:02:04;9.20;99.90
9305;DHT22;4690;52.422;13.486;2023-05-07T03:04:30;9.20;99.90
9305;DHT22;4690;52.422;13.486;2023-05-07T03:06:56;9.20;99.90
9305;DHT22;4690;52.422;13.486;2023-05-07T03:09:22;9.20;99.90
9305;DHT22;4690;52.422;13.486;2023-05-07T03:11:48;9.20;99.90
9305;DHT22;4690;52.422;13.486;2023-05-07T03:14:13;9.20;99.90
9305;DHT22;4690;52.422;13.486;2023-05-07T03:16:39;9.20;99.90
9305;DHT22;4690;52.422;13.486;2023-05-07T03:19:05;9.20;99.90
9305;DHT22;4690;52.422;13.486;2023-05-07T03:21:31;9.20;99.90
9305;DHT22;4690;52.422;13.486;2023-05-07T03:23:59;9.10;99.90
9305;DHT22;4690;52.422;13.486;2023-05-07T03:26:26;9.20;99.90
9305;DHT22;4690;52.422;13.486;2023-05-07T03:28:51;9.10;99.90
9305;DHT22;4690;52.422;13.486;2023-05-07T03:31:18;9.10;99.90
9305;DHT22;4690;52.422;13.486;2023-05-07T03:33:54;9.10;99.90
9305;DHT22;4690;52.422;13.486;2023-05-07T03:36:21;9.10;99.90
9305;DHT22;4690;52.422;13.486;2023-05-07T03:38:48;9.20;99.90
9305;DHT22;4690;52.422;13.486;2023-05-07T03:41:15;9.20;99.90
9305;DHT22;4690;52.422;13.486;2023-05-07T03:43:41;9.20;99.90
9305;DHT22;4690;52.422;13.486;2023-05-07T03:46:07;9.20;99.90
9305;DHT22;4690;52.422;13.486;2023-05-07T03:48:32;9.10;99.90
9305;DHT22;4690;52.422;13.486;2023-05-07T03:50:59;9.10;99.90
9305;DHT22;4690;52.422;13.486;2023-05-07T03:53:24;9.20;99.90
9305;DHT22;4690;52.422;13.486;2023-05-07T03:55:50;9.20;99.90
9305;DHT22;4690;52.422;13.486;2023-05-07T03:58:16;9.10;99.90
9305;DHT22;4690;52.422;13.486;2023-05-07T04:00:42;9.10;99.90
9305;DHT22;4690;52.422;13.486;2023-05-07T04:03:08;9.00;99.90
9305;DHT22;4690;52.422;13.486;2023-05-07T04:05:34;9.00;99.90
9305;DHT22;4690;52.422;13.486;2023-05-07T04:08:00;9.10;99.90
9305;DHT22;4690;52.422;13.486;2023-05-07T04:10:26;9.10;99.90
9305;DHT22;4690;52.422;13.486;2023-05-07T04:12:53;9.10;99.90
9305;DHT22;4690;52.422;13.486;2023-05-07T04:15:23;9.10;99.90
9305;DHT22;4690;52.422;13.486;2023-05-07T04:17:49;9.00;99.90
9305;DHT22;4690;52.422;13.486;2023-05-07T04:20:16;9.00;99.90
9305;DHT22;4690;52.422;13.486;2023-05-07T04:22:42;9.00;99.90
9305;DHT22;4690;52.422;13.486;2023-05-07T04:25:09;9.00;99.90
9305;DHT22;4690;52.422;13.486;2023-05-07T04:27:35;9.10;99.90
9305;DHT22;4690;52.422;13.486;2023-05-07T04:30:05;9.10;99.90
9305;DHT22;4690;52.422;13.486;2023-05-07T04:32:32;9.10;99.90
9305;DHT22;4690;52.422;13.486;2023-05-07T04:34:57;9.10;99.90
9305;DHT22;4690;52.422;13.486;2023-05-07T04:37:23;9.10;99.90
9305;DHT22;4690;52.422;13.486;2023-05-07T04:39:50;9.10;99.90
9305;DHT22;4690;52.422;13.486;2023-05-07T04:42:16;9.10;99.90
9305;DHT22;4690;52.422;13.486;2023-05-07T04:44:44;9.00;99.90
9305;DHT22;4690;52.422;13.486;2023-05-07T04:47:13;9.10;99.90
9305;DHT22;4690;52.422;13.486;2023-05-07T04:49:39;9.00;99.90
9305;DHT22;4690;52.422;13.486;2023-05-07T04:52:04;9.00;99.90
9305;DHT22;4690;52.422;13.486;2023-05-07T04:54:30;9.00;99.90
9305;DHT22;4690;52.422;13.486;2023-05-07T04:56:56;9.10;99.90
9305;DHT22;4690;52.422;13.486;2023-05-07T04:59:22;9.10;99.90
9305;DHT22;4690;52.422;13.486;2023-05-07T05:01:47;9.10;99.90
9305;DHT22;4690;52.422;13.486;2023-05-07T05:04:13;9.10;99.90
9305;DHT22;4690;52.422;13.486;2023-05-07T05:06:39;9.10;99.90
9305;DHT22;4690;52.422;13.486;2023-05-07T05:09:05;9.10;99.90
9305;DHT22;4690;52.422;13.486;2023-05-07T05:11:31;9.10;99.90
9305;DHT22;4690;52.422;13.486;2023-05-07T05:13:59;9.10;99.90
9305;DHT22;4690;52.422;13.486;2023-05-07T05:16:26;9.10;99.90
9305;DHT22;4690;52.422;13.486;2023-05-07T05:18:51;9.10;99.90
9305;DHT22;4690;52.422;13.486;2023-05-07T05:21:19;9.20;99.90
9305;DHT22;4690;52.422;13.486;2023-05-07T05:23:45;9.20;99.90
9305;DHT22;4690;52.422;13.486;2023-05-07T05:26:11;9.20;99.90
9305;DHT22;4690;52.422;13.486;2023-05-07T05:28:37;9.20;99.90
9305;DHT22;4690;52.422;13.486;2023-05-07T05:31:02;9.20;99.90
9305;DHT22;4690;52.422;13.486;2023-05-07T05:33:28;9.20;99.90
9305;DHT22;4690;52.422;13.486;2023-05-07T05:35:54;9.20;99.90
9305;DHT22;4690;52.422;13.486;2023-05-07T05:38:20;9.20;99.90
9305;DHT22;4690;52.422;13.486;2023-05-07T05:40:46;9.20;99.90
9305;DHT22;4690;52.422;13.486;2023-05-07T05:43:13;9.20;99.90
9305;DHT22;4690;52.422;13.486;2023-05-07T05:45:39;9.20;99.90
9305;DHT22;4690;52.422;13.486;2023-05-07T05:48:05;9.30;99.90
9305;DHT22;4690;52.422;13.486;2023-05-07T05:50:31;9.40;99.90
9305;DHT22;4690;52.422;13.486;2023-05-07T05:52:57;9.50;99.90
9305;DHT22;4690;52.422;13.486;2023-05-07T05:55:23;9.50;99.90
9305;DHT22;4690;52.422;13.486;2023-05-07T05:57:49;9.50;99.90
9305;DHT22;4690;52.422;13.486;2023-05-07T06:00:16;9.60;99.90
9305;DHT22;4690;52.422;13.486;2023-05-07T06:02:42;9.60;99.90
9305;DHT22;4690;52.422;13.486;2023-05-07T06:05:10;9.70;99.90
9305;DHT22;4690;52.422;13.486;2023-05-07T06:07:36;9.70;99.90
9305;DHT22;4690;52.422;13.486;2023-05-07T06:10:02;9.70;99.90
9305;DHT22;4690;52.422;13.486;2023-05-07T06:12:28;9.70;99.90
9305;DHT22;4690;52.422;13.486;2023-05-07T06:14:53;9.80;99.90
9305;DHT22;4690;52.422;13.486;2023-05-07T06:17:20;9.90;99.90
9305;DHT22;4690;52.422;13.486;2023-05-07T06:19:45;9.80;99.90
9305;DHT22;4690;52.422;13.486;2023-05-07T06:22:11;9.80;99.90
9305;DHT22;4690;52.422;13.486;2023-05-07T06:24:37;9.90;99.90
9305;DHT22;4690;52.422;13.486;2023-05-07T06:27:03;9.90;99.90
9305;DHT22;4690;52.422;13.486;2023-05-07T06:29:29;9.90;99.90
9305;DHT22;4690;52.422;13.486;2023-05-07T06:31:56;9.80;99.90
9305;DHT22;4690;52.422;13.486;2023-05-07T06:34:31;9.90;99.90
9305;DHT22;4690;52.422;13.486;2023-05-07T06:36:57;9.90;99.90
9305;DHT22;4690;52.422;13.486;2023-05-07T06:39:23;9.90;99.90
9305;DHT22;4690;52.422;13.486;2023-05-07T06:41:49;9.90;99.90
9305;DHT22;4690;52.422;13.486;2023-05-07T06:44:15;9.90;99.90
9305;DHT22;4690;52.422;13.486;2023-05-07T06:46:41;9.90;99.90
9305;DHT22;4690;52.422;13.486;2023-05-07T06:49:07;9.90;99.90
9305;DHT22;4690;52.422;13.486;2023-05-07T06:51:33;9.90;99.90
9305;DHT22;4690;52.422;13.486;2023-05-07T06:53:59;9.90;99.90
9305;DHT22;4690;52.422;13.486;2023-05-07T06:56:25;9.90;99.90
9305;DHT22;4690;52.422;13.486;2023-05-07T06:58:51;10.00;99.90
9305;DHT22;4690;52.422;13.486;2023-05-07T07:01:16;10.00;99.90
9305;DHT22;4690;52.422;13.486;2023-05-07T07:03:42;10.00;99.90
9305;DHT22;4690;52.422;13.486;2023-05-07T07:06:08;10.00;99.90
9305;DHT22;4690;52.422;13.486;2023-05-07T07:08:34;10.10;99.90
9305;DHT22;4690;52.422;13.486;2023-05-07T07:11:00;10.20;99.90
9305;DHT22;4690;52.422;13.486;2023-05-07T07:13:26;10.20;99.90
9305;DHT22;4690;52.422;13.486;2023-05-07T07:15:52;10.40;99.90
9305;DHT22;4690;52.422;13.486;2023-05-07T07:18:18;10.50;99.90
9305;DHT22;4690;52.422;13.486;2023-05-07T07:20:44;10.70;99.90
9305;DHT22;4690;52.422;13.486;2023-05-07T07:23:10;10.80;99.90
9305;DHT22;4690;52.422;13.486;2023-05-07T07:25:36;10.90;99.90
9305;DHT22;4690;52.422;13.486;2023-05-07T07:28:02;11.20;99.90
9305;DHT22;4690;52.422;13.486;2023-05-07T07:30:28;11.40;99.90
9305;DHT22;4690;52.422;13.486;2023-05-07T07:32:54;11.50;99.90
9305;DHT22;4690;52.422;13.486;2023-05-07T07:35:20;11.40;99.90
9305;DHT22;4690;52.422;13.486;2023-05-07T07:37:47;11.40;99.90
9305;DHT22;4690;52.422;13.486;2023-05-07T07:40:15;11.50;99.90
9305;DHT22;4690;52.422;13.486;2023-05-07T07:42:41;11.60;99.90
9305;DHT22;4690;52.422;13.486;2023-05-07T07:45:07;12.10;99.90
9305;DHT22;4690;52.422;13.486;2023-05-07T07:47:33;12.60;99.90
9305;DHT22;4690;52.422;13.486;2023-05-07T07:49:59;12.80;99.90
9305;DHT22;4690;52.422;13.486;2023-05-07T07:52:25;12.50;99.90
9305;DHT22;4690;52.422;13.486;2023-05-07T07:54:51;12.50;99.90
9305;DHT22;4690;52.422;13.486;2023-05-07T07:57:16;12.70;99.90
9305;DHT22;4690;52.422;13.486;2023-05-07T07:59:42;13.00;99.90
9305;DHT22;4690;52.422;13.486;2023-05-07T08:02:08;13.10;99.90
9305;DHT22;4690;52.422;13.486;2023-05-07T08:04:34;13.20;99.90
9305;DHT22;4690;52.422;13.486;2023-05-07T08:07:00;13.20;99.90
9305;DHT22;4690;52.422;13.486;2023-05-07T08:09:26;13.20;99.90
9305;DHT22;4690;52.422;13.486;2023-05-07T08:11:55;13.00;99.90
9305;DHT22;4690;52.422;13.486;2023-05-07T08:14:20;13.50;99.90
9305;DHT22;4690;52.422;13.486;2023-05-07T08:16:46;13.40;99.90
9305;DHT22;4690;52.422;13.486;2023-05-07T08:19:12;13.30;99.90
9305;DHT22;4690;52.422;13.486;2023-05-07T08:21:39;13.70;99.90
9305;DHT22;4690;52.422;13.486;2023-05-07T08:24:05;14.00;99.90
9305;DHT22;4690;52.422;13.486;2023-05-07T08:26:31;13.80;99.90
9305;DHT22;4690;52.422;13.486;2023-05-07T08:28:57;13.40;99.90
9305;DHT22;4690;52.422;13.486;2023-05-07T08:31:22;13.60;99.90
9305;DHT22;4690;52.422;13.486;2023-05-07T08:33:48;13.50;99.90
9305;DHT22;4690;52.422;13.486;2023-05-07T08:36:15;13.30;99.90
9305;DHT22;4690;52.422;13.486;2023-05-07T08:38:40;13.10;99.90
9305;DHT22;4690;52.422;13.486;2023-05-07T08:41:10;13.20;99.90
9305;DHT22;4690;52.422;13.486;2023-05-07T08:43:37;13.40;99.90
9305;DHT22;4690;52.422;13.486;2023-05-07T08:46:06;13.90;99.90
9305;DHT22;4690;52.422;13.486;2023-05-07T08:48:34;14.10;99.90
9305;DHT22;4690;52.422;13.486;2023-05-07T08:51:01;14.40;99.90
9305;DHT22;4690;52.422;13.486;2023-05-07T08:53:27;14.20;99.90
9305;DHT22;4690;52.422;13.486;2023-05-07T08:55:53;14.50;99.90
9305;DHT22;4690;52.422;13.486;2023-05-07T08:58:19;14.90;99.90
9305;DHT22;4690;52.422;13.486;2023-05-07T09:00:46;14.80;99.90
9305;DHT22;4690;52.422;13.486;2023-05-07T09:03:12;14.70;99.90
9305;DHT22;4690;52.422;13.486;2023-05-07T09:05:39;14.70;99.90
9305;DHT22;4690;52.422;13.486;2023-05-07T09:08:07;14.70;99.90
9305;DHT22;4690;52.422;13.486;2023-05-07T09:10:34;14.70;99.90
9305;DHT22;4690;52.422;13.486;2023-05-07T09:12:59;14.10;99.90
9305;DHT22;4690;52.422;13.486;2023-05-07T09:15:26;14.10;99.90
9305;DHT22;4690;52.422;13.486;2023-05-07T09:17:53;14.10;99.90
9305;DHT22;4690;52.422;13.486;2023-05-07T09:20:19;14.30;99.90
9305;DHT22;4690;52.422;13.486;2023-05-07T09:22:46;14.10;99.90
9305;DHT22;4690;52.422;13.486;2023-05-07T09:25:14;13.80;99.90
9305;DHT22;4690;52.422;13.486;2023-05-07T09:27:41;13.70;99.90
9305;DHT22;4690;52.422;13.486;2023-05-07T09:30:07;13.80;99.90
9305;DHT22;4690;52.422;13.486;2023-05-07T09:32:37;13.70;99.90
9305;DHT22;4690;52.422;13.486;2023-05-07T09:35:05;13.70;99.90
9305;DHT22;4690;52.422;13.486;2023-05-07T09:37:40;13.60;99.90
9305;DHT22;4690;52.422;13.486;2023-05-07T09:40:07;13.70;99.90
9305;DHT22;4690;52.422;13.486;2023-05-07T09:42:34;13.70;99.90
9305;DHT22;4690;52.422;13.486;2023-05-07T09:45:00;13.80;99.90
9305;DHT22;4690;52.422;13.486;2023-05-07T09:47:28;13.60;99.90
9305;DHT22;4690;52.422;13.486;2023-05-07T09:49:59;13.70;99.90
9305;DHT22;4690;52.422;13.486;2023-05-07T09:52:30;13.80;99.90
9305;DHT22;4690;52.422;13.486;2023-05-07T09:55:00;13.90;99.90
9305;DHT22;4690;52.422;13.486;2023-05-07T09:57:28;13.80;99.90
9305;DHT22;4690;52.422;13.486;2023-05-07T09:59:56;13.80;99.90
9305;DHT22;4690;52.422;13.486;2023-05-07T10:02:25;13.60;99.90
9305;DHT22;4690;52.422;13.486;2023-05-07T10:04:56;13.30;99.90
9305;DHT22;4690;52.422;13.486;2023-05-07T10:07:24;13.20;99.90
9305;DHT22;4690;52.422;13.486;2023-05-07T10:09:50;13.40;99.90
9305;DHT22;4690;52.422;13.486;2023-05-07T10:12:17;13.60;99.90
9305;DHT22;4690;52.422;13.486;2023-05-07T10:14:45;13.80;99.90
9305;DHT22;4690;52.422;13.486;2023-05-07T10:17:13;13.80;99.90
9305;DHT22;4690;52.422;13.486;2023-05-07T10:19:44;13.80;99.90
9305;DHT22;4690;52.422;13.486;2023-05-07T10:22:10;13.70;99.90
9305;DHT22;4690;52.422;13.486;2023-05-07T10:24:37;13.50;99.90
9305;DHT22;4690;52.422;13.486;2023-05-07T10:27:07;13.40;99.90
9305;DHT22;4690;52.422;13.486;2023-05-07T10:29:51;13.50;99.90
9305;DHT22;4690;52.422;13.486;2023-05-07T10:35:26;13.80;99.90
9305;DHT22;4690;52.422;13.486;2023-05-07T10:37:57;13.80;99.90
9305;DHT22;4690;52.422;13.486;2023-05-07T10:40:23;13.80;99.90
9305;DHT22;4690;52.422;13.486;2023-05-07T10:43:00;13.80;99.90
9305;DHT22;4690;52.422;13.486;2023-05-07T10:45:30;14.00;99.90
9305;DHT22;4690;52.422;13.486;2023-05-07T10:48:15;13.90;99.90
9305;DHT22;4690;52.422;13.486;2023-05-07T10:50:43;13.90;99.90
9305;DHT22;4690;52.422;13.486;2023-05-07T10:55:49;13.80;99.90
9305;DHT22;4690;52.422;13.486;2023-05-07T10:58:25;13.90;99.90
9305;DHT22;4690;52.422;13.486;2023-05-07T11:01:01;14.20;99.90
9305;DHT22;4690;52.422;13.486;2023-05-07T11:03:28;14.70;99.90
9305;DHT22;4690;52.422;13.486;2023-05-07T11:06:12;15.10;99.90
9305;DHT22;4690;52.422;13.486;2023-05-07T11:08:55;15.60;99.90
9305;DHT22;4690;52.422;13.486;2023-05-07T11:11:50;15.60;99.90
9305;DHT22;4690;52.422;13.486;2023-05-07T11:14:43;15.90;99.90
9305;DHT22;4690;52.422;13.486;2023-05-07T11:17:11;16.60;99.90
9305;DHT22;4690;52.422;13.486;2023-05-07T11:19:54;16.50;99.90
9305;DHT22;4690;52.422;13.486;2023-05-07T11:25:03;16.10;99.90
9305;DHT22;4690;52.422;13.486;2023-05-07T11:27:29;15.70;99.90
9305;DHT22;4690;52.422;13.486;2023-05-07T11:29:56;15.80;99.90
9305;DHT22;4690;52.422;13.486;2023-05-07T11:32:25;15.40;99.90
9305;DHT22;4690;52.422;13.486;2023-05-07T11:34:57;15.10;99.90
9305;DHT22;4690;52.422;13.486;2023-05-07T11:37:25;14.90;99.90
9305;DHT22;4690;52.422;13.486;2023-05-07T11:40:13;14.80;99.90
9305;DHT22;4690;52.422;13.486;2023-05-07T11:42:40;14.90;99.90
9305;DHT22;4690;52.422;13.486;2023-05-07T11:45:08;14.80;99.90
9305;DHT22;4690;52.422;13.486;2023-05-07T11:47:34;14.80;99.90
9305;DHT22;4690;52.422;13.486;2023-05-07T11:50:07;14.80;99.90
9305;DHT22;4690;52.422;13.486;2023-05-07T11:52:34;14.80;99.90
9305;DHT22;4690;52.422;13.486;2023-05-07T11:55:01;14.80;99.90
9305;DHT22;4690;52.422;13.486;2023-05-07T11:57:29;15.00;99.90
9305;DHT22;4690;52.422;13.486;2023-05-07T11:59:56;15.10;99.90
9305;DHT22;4690;52.422;13.486;2023-05-07T12:02:23;15.20;99.90
9305;DHT22;4690;52.422;13.486;2023-05-07T12:04:53;15.00;99.90
9305;DHT22;4690;52.422;13.486;2023-05-07T12:07:20;15.10;99.90
9305;DHT22;4690;52.422;13.486;2023-05-07T12:09:47;15.10;99.90
9305;DHT22;4690;52.422;13.486;2023-05-07T12:12:14;15.40;99.90
9305;DHT22;4690;52.422;13.486;2023-05-07T12:14:42;15.60;99.90
9305;DHT22;4690;52.422;13.486;2023-05-07T12:17:10;15.80;99.90
9305;DHT22;4690;52.422;13.486;2023-05-07T12:19:38;16.00;99.90
9305;DHT22;4690;52.422;13.486;2023-05-07T12:22:05;16.10;99.90
9305;DHT22;4690;52.422;13.486;2023-05-07T12:24:46;16.10;99.90
9305;DHT22;4690;52.422;13.486;2023-05-07T12:27:14;16.20;99.90
9305;DHT22;4690;52.422;13.486;2023-05-07T12:29:47;16.60;99.90
9305;DHT22;4690;52.422;13.486;2023-05-07T12:32:18;16.70;99.90
9305;DHT22;4690;52.422;13.486;2023-05-07T12:34:50;16.60;99.90
9305;DHT22;4690;52.422;13.486;2023-05-07T12:37:17;16.10;99.90
9305;DHT22;4690;52.422;13.486;2023-05-07T12:39:49;16.20;99.90
9305;DHT22;4690;52.422;13.486;2023-05-07T12:42:35;16.30;99.90
9305;DHT22;4690;52.422;13.486;2023-05-07T12:45:16;16.50;99.90
9305;DHT22;4690;52.422;13.486;2023-05-07T12:47:46;16.70;99.90
9305;DHT22;4690;52.422;13.486;2023-05-07T12:50:13;16.80;99.90
9305;DHT22;4690;52.422;13.486;2023-05-07T12:52:40;16.90;99.90
9305;DHT22;4690;52.422;13.486;2023-05-07T12:55:08;17.10;99.90
9305;DHT22;4690;52.422;13.486;2023-05-07T12:57:42;16.90;99.90
9305;DHT22;4690;52.422;13.486;2023-05-07T13:00:14;16.50;99.90
9305;DHT22;4690;52.422;13.486;2023-05-07T13:02:41;16.40;99.90
9305;DHT22;4690;52.422;13.486;2023-05-07T13:05:10;16.10;99.90
9305;DHT22;4690;52.422;13.486;2023-05-07T13:07:36;16.00;99.90
9305;DHT22;4690;52.422;13.486;2023-05-07T13:10:03;15.90;99.90
9305;DHT22;4690;52.422;13.486;2023-05-07T13:12:29;16.10;99.90
9305;DHT22;4690;52.422;13.486;2023-05-07T13:14:55;15.80;99.90
9305;DHT22;4690;52.422;13.486;2023-05-07T13:17:21;15.60;99.90
9305;DHT22;4690;52.422;13.486;2023-05-07T13:19:47;15.50;99.90
9305;DHT22;4690;52.422;13.486;2023-05-07T13:22:12;15.60;99.90
9305;DHT22;4690;52.422;13.486;2023-05-07T13:24:38;15.60;99.90
9305;DHT22;4690;52.422;13.486;2023-05-07T13:27:06;15.60;99.90
9305;DHT22;4690;52.422;13.486;2023-05-07T13:29:32;15.50;99.90
9305;DHT22;4690;52.422;13.486;2023-05-07T13:31:58;15.40;99.90
9305;DHT22;4690;52.422;13.486;2023-05-07T13:34:25;15.40;99.90
9305;DHT22;4690;52.422;13.486;2023-05-07T13:36:51;15.40;99.90
9305;DHT22;4690;52.422;13.486;2023-05-07T13:39:16;15.30;99.90
9305;DHT22;4690;52.422;13.486;2023-05-07T13:41:42;15.40;99.90
9305;DHT22;4690;52.422;13.486;2023-05-07T13:44:08;15.50;99.90
9305;DHT22;4690;52.422;13.486;2023-05-07T13:46:34;15.50;99.90
9305;DHT22;4690;52.422;13.486;2023-05-07T13:48:59;15.70;99.90
9305;DHT22;4690;52.422;13.486;2023-05-07T13:51:25;15.70;99.90
9305;DHT22;4690;52.422;13.486;2023-05-07T13:53:51;15.70;99.90
9305;DHT22;4690;52.422;13.486;2023-05-07T13:56:18;15.70;99.90
9305;DHT22;4690;52.422;13.486;2023-05-07T13:58:43;15.80;99.90
9305;DHT22;4690;52.422;13.486;2023-05-07T14:01:09;15.90;99.90
9305;DHT22;4690;52.422;13.486;2023-05-07T14:03:35;15.80;99.90
9305;DHT22;4690;52.422;13.486;2023-05-07T14:06:03;15.80;99.90
9305;DHT22;4690;52.422;13.486;2023-05-07T14:08:29;15.70;99.90
9305;DHT22;4690;52.422;13.486;2023-05-07T14:10:55;15.80;99.90
9305;DHT22;4690;52.422;13.486;2023-05-07T14:13:21;15.70;99.90
9305;DHT22;4690;52.422;13.486;2023-05-07T14:15:46;15.60;99.90
9305;DHT22;4690;52.422;13.486;2023-05-07T14:18:14;15.50;99.90
9305;DHT22;4690;52.422;13.486;2023-05-07T14:20:41;15.50;99.90
9305;DHT22;4690;52.422;13.486;2023-05-07T14:23:09;15.50;99.90
9305;DHT22;4690;52.422;13.486;2023-05-07T14:25:35;15.40;99.90
9305;DHT22;4690;52.422;13.486;2023-05-07T14:28:00;15.40;99.90
9305;DHT22;4690;52.422;13.486;2023-05-07T14:30:26;15.40;99.90
9305;DHT22;4690;52.422;13.486;2023-05-07T14:32:52;15.30;99.90
9305;DHT22;4690;52.422;13.486;2023-05-07T14:35:18;15.20;99.90
9305;DHT22;4690;52.422;13.486;2023-05-07T14:37:43;15.10;99.90
9305;DHT22;4690;52.422;13.486;2023-05-07T14:40:09;15.10;99.90
9305;DHT22;4690;52.422;13.486;2023-05-07T14:42:35;15.20;99.90
9305;DHT22;4690;52.422;13.486;2023-05-07T14:45:02;15.30;99.90
9305;DHT22;4690;52.422;13.486;2023-05-07T14:47:27;15.50;99.90
9305;DHT22;4690;52.422;13.486;2023-05-07T14:49:54;15.70;99.90
9305;DHT22;4690;52.422;13.486;2023-05-07T14:52:20;15.80;99.90
9305;DHT22;4690;52.422;13.486;2023-05-07T14:54:46;15.70;99.90
9305;DHT22;4690;52.422;13.486;2023-05-07T14:57:14;15.50;99.90
9305;DHT22;4690;52.422;13.486;2023-05-07T14:59:42;15.50;99.90
9305;DHT22;4690;52.422;13.486;2023-05-07T15:02:09;15.60;99.90
9305;DHT22;4690;52.422;13.486;2023-05-07T15:04:35;15.70;99.90
9305;DHT22;4690;52.422;13.486;2023-05-07T15:07:01;15.80;99.90
9305;DHT22;4690;52.422;13.486;2023-05-07T15:09:27;15.90;99.90
9305;DHT22;4690;52.422;13.486;2023-05-07T15:11:52;16.00;99.90
9305;DHT22;4690;52.422;13.486;2023-05-07T15:14:18;15.90;99.90
9305;DHT22;4690;52.422;13.486;2023-05-07T15:16:45;15.90;99.90
9305;DHT22;4690;52.422;13.486;2023-05-07T15:19:10;15.70;99.90
9305;DHT22;4690;52.422;13.486;2023-05-07T15:21:36;15.70;99.90
9305;DHT22;4690;52.422;13.486;2023-05-07T15:24:02;15.70;99.90
9305;DHT22;4690;52.422;13.486;2023-05-07T15:26:28;15.50;99.90
9305;DHT22;4690;52.422;13.486;2023-05-07T15:28:54;15.50;99.90
9305;DHT22;4690;52.422;13.486;2023-05-07T15:31:23;15.60;99.90
9305;DHT22;4690;52.422;13.486;2023-05-07T15:33:50;15.50;99.90
9305;DHT22;4690;52.422;13.486;2023-05-07T15:36:20;15.50;99.90
9305;DHT22;4690;52.422;13.486;2023-05-07T15:38:46;15.60;99.90
9305;DHT22;4690;52.422;13.486;2023-05-07T15:41:11;15.70;99.90
9305;DHT22;4690;52.422;13.486;2023-05-07T15:43:47;15.50;99.90
9305;DHT22;4690;52.422;13.486;2023-05-07T15:46:18;15.50;99.90
9305;DHT22;4690;52.422;13.486;2023-05-07T15:48:46;15.50;99.90
9305;DHT22;4690;52.422;13.486;2023-05-07T15:51:12;15.40;99.90
9305;DHT22;4690;52.422;13.486;2023-05-07T15:53:38;15.40;99.90
9305;DHT22;4690;52.422;13.486;2023-05-07T15:56:05;15.40;99.90
9305;DHT22;4690;52.422;13.486;2023-05-07T15:58:31;15.50;99.90
9305;DHT22;4690;52.422;13.486;2023-05-07T16:00:58;15.50;99.90
9305;DHT22;4690;52.422;13.486;2023-05-07T16:03:27;15.50;99.90
9305;DHT22;4690;52.422;13.486;2023-05-07T16:05:53;15.40;99.90